createdAt,value
2018-02-17T00:00:15.407Z,95.03
2018-02-17T00:01:15.310Z,94.65
2018-02-17T00:02:15.190Z,94.98
2018-02-17T00:03:15.089Z,94.98
2018-02-17T00:04:14.986Z,95.36
2018-02-17T00:05:14.877Z,95.21
2018-02-17T00:06:14.768Z,95.31
2018-02-17T00:07:14.665Z,95.31
2018-02-17T00:08:14.554Z,95.40
2018-02-17T00:09:14.452Z,95.36
2018-02-17T00:10:14.341Z,94.98
2018-02-17T00:11:14.238Z,95.26
2018-02-17T00:12:14.131Z,95.45
2018-02-17T00:13:14.024Z,95.69
2018-02-17T00:14:13.922Z,95.73
2018-02-17T00:15:13.810Z,95.54
2018-02-17T00:16:13.703Z,95.50
2018-02-17T00:17:13.606Z,95.31
2018-02-17T00:18:13.782Z,95.40
2018-02-17T00:19:13.379Z,95.21
2018-02-17T00:20:13.285Z,94.79
2018-02-17T00:21:13.165Z,94.89
2018-02-17T00:22:13.069Z,95.45
2018-02-17T00:23:13.007Z,95.07
2018-02-17T00:24:12.855Z,94.98
2018-02-17T00:25:12.742Z,95.83
2018-02-17T00:26:12.636Z,95.73
2018-02-17T00:27:12.532Z,95.64
2018-02-17T00:28:12.425Z,95.64
2018-02-17T00:29:12.318Z,95.36
2018-02-17T00:30:12.220Z,95.54
2018-02-17T00:31:12.105Z,95.45
2018-02-17T00:32:11.997Z,95.64
2018-02-17T00:33:11.899Z,95.64
2018-02-17T00:34:11.778Z,95.73
2018-02-17T00:35:11.677Z,95.73
2018-02-17T00:36:11.591Z,96.11
2018-02-17T00:37:11.463Z,95.26
2018-02-17T00:38:11.359Z,95.54
2018-02-17T00:39:11.257Z,95.92
2018-02-17T00:40:11.136Z,96.02
2018-02-17T00:41:11.041Z,95.73
2018-02-17T00:42:10.934Z,95.83
2018-02-17T00:43:10.820Z,96.30
2018-02-17T00:44:10.722Z,95.83
2018-02-17T00:45:10.620Z,96.21
2018-02-17T00:46:10.504Z,96.40
2018-02-17T00:47:10.402Z,96.11
2018-02-17T00:48:10.289Z,96.40
2018-02-17T00:49:10.183Z,96.21
2018-02-17T00:50:10.074Z,96.11
2018-02-17T00:51:09.978Z,96.78
2018-02-17T00:52:09.862Z,96.49
2018-02-17T00:53:09.754Z,96.49
2018-02-17T00:54:09.652Z,96.40
2018-02-17T00:55:09.544Z,96.49
2018-02-17T00:56:09.435Z,96.40
2018-02-17T00:57:09.338Z,96.21
2018-02-17T00:58:09.226Z,96.40
2018-02-17T00:59:09.114Z,96.21
2018-02-17T01:00:09.017Z,96.40
2018-02-17T01:01:08.894Z,96.40
2018-02-17T01:02:08.794Z,96.40
2018-02-17T01:03:08.694Z,96.40
2018-02-17T01:04:08.572Z,96.30
2018-02-17T01:05:08.479Z,96.21
2018-02-17T01:06:08.369Z,96.40
2018-02-17T01:07:08.259Z,96.30
2018-02-17T01:08:08.152Z,96.30
2018-02-17T01:09:08.049Z,96.59
2018-02-17T01:10:07.935Z,96.49
2018-02-17T01:11:07.834Z,96.87
2018-02-17T01:12:07.726Z,96.78
2018-02-17T01:13:07.615Z,96.49
2018-02-17T01:14:07.506Z,96.59
2018-02-17T01:15:07.403Z,96.30
2018-02-17T01:16:07.292Z,96.40
2018-02-17T01:17:07.189Z,96.40
2018-02-17T01:18:07.087Z,96.21
2018-02-17T01:19:06.976Z,95.83
2018-02-17T01:20:06.867Z,96.02
2018-02-17T01:21:06.767Z,95.73
2018-02-17T01:22:06.647Z,95.92
2018-02-17T01:23:06.543Z,95.92
2018-02-17T01:24:06.445Z,95.92
2018-02-17T01:25:06.325Z,95.92
2018-02-17T01:26:06.226Z,95.83
2018-02-17T01:27:06.126Z,95.92
2018-02-17T01:28:06.002Z,96.30
2018-02-17T01:29:05.908Z,96.49
2018-02-17T01:30:05.798Z,95.73
2018-02-17T01:31:05.687Z,96.11
2018-02-17T01:32:05.584Z,96.40
2018-02-17T01:33:05.480Z,96.40
2018-02-17T01:34:05.369Z,96.49
2018-02-17T01:35:05.261Z,96.21
2018-02-17T01:36:05.154Z,96.30
2018-02-17T01:37:05.045Z,96.40
2018-02-17T01:38:04.943Z,96.59
2018-02-17T01:39:04.837Z,96.68
2018-02-17T01:40:04.721Z,96.59
2018-02-17T01:41:04.621Z,96.68
2018-02-17T01:42:04.516Z,96.68
2018-02-17T01:43:04.404Z,96.40
2018-02-17T01:44:04.293Z,96.78
2018-02-17T01:45:04.193Z,96.21
2018-02-17T01:46:04.077Z,96.21
2018-02-17T01:47:03.973Z,96.49
2018-02-17T01:48:03.870Z,96.49
2018-02-17T01:49:03.757Z,96.49
2018-02-17T01:50:03.654Z,96.49
2018-02-17T01:51:03.551Z,95.83
2018-02-17T01:52:03.430Z,95.92
2018-02-17T01:53:03.330Z,96.11
2018-02-17T01:54:03.234Z,96.40
2018-02-17T01:55:03.116Z,96.30
2018-02-17T01:56:03.006Z,96.40
2018-02-17T01:57:02.906Z,96.21
2018-02-17T01:58:02.787Z,96.49
2018-02-17T01:59:02.695Z,96.21
2018-02-17T02:00:02.590Z,96.59
2018-02-17T02:01:02.478Z,96.59
2018-02-17T02:02:02.367Z,96.59
2018-02-17T02:03:02.264Z,96.59
2018-02-17T02:04:02.160Z,96.49
2018-02-17T02:05:02.043Z,96.49
2018-02-17T02:06:01.937Z,96.68
2018-02-17T02:07:01.834Z,96.49
2018-02-17T02:08:01.728Z,96.40
2018-02-17T02:09:01.618Z,96.49
2018-02-17T02:10:01.517Z,96.30
2018-02-17T02:11:01.408Z,96.68
2018-02-17T02:12:01.291Z,96.35
2018-02-17T02:13:01.196Z,95.88
2018-02-17T02:14:01.088Z,96.26
2018-02-17T02:15:00.972Z,95.69
2018-02-17T02:16:00.873Z,95.69
2018-02-17T02:17:00.764Z,95.78
2018-02-17T02:18:00.650Z,95.78
2018-02-17T02:19:00.548Z,95.69
2018-02-17T02:20:00.440Z,95.69
2018-02-17T02:21:00.332Z,95.31
2018-02-17T02:22:00.224Z,96.26
2018-02-17T02:23:00.123Z,96.07
2018-02-17T02:24:00.022Z,96.26
2018-02-17T02:24:59.903Z,95.88
2018-02-17T02:25:59.805Z,95.97
2018-02-17T02:26:59.704Z,96.07
2018-02-17T02:27:59.582Z,95.31
2018-02-17T02:28:59.481Z,95.69
2018-02-17T02:29:59.373Z,95.97
2018-02-17T02:30:59.340Z,95.78
2018-02-17T02:31:59.157Z,95.78
2018-02-17T02:32:59.065Z,95.31
2018-02-17T02:33:58.953Z,95.50
2018-02-17T02:34:58.838Z,95.69
2018-02-17T02:35:58.731Z,95.69
2018-02-17T02:36:58.632Z,95.97
2018-02-17T02:37:58.521Z,95.97
2018-02-17T02:38:58.407Z,95.97
2018-02-17T02:39:58.312Z,96.16
2018-02-17T02:40:58.199Z,95.88
2018-02-17T02:41:58.088Z,96.26
2018-02-17T02:42:57.984Z,96.64
2018-02-17T02:43:57.876Z,96.64
2018-02-17T02:44:57.780Z,96.35
2018-02-17T02:45:57.661Z,95.97
2018-02-17T02:46:57.558Z,95.59
2018-02-17T02:47:57.463Z,95.97
2018-02-17T02:48:57.351Z,95.88
2018-02-17T02:49:57.244Z,95.97
2018-02-17T02:50:57.133Z,95.97
2018-02-17T02:51:57.025Z,95.97
2018-02-17T02:52:56.918Z,95.88
2018-02-17T02:53:56.809Z,95.97
2018-02-17T02:54:56.705Z,95.92
2018-02-17T02:55:56.620Z,96.02
2018-02-17T02:56:56.487Z,96.21
2018-02-17T02:57:56.389Z,96.30
2018-02-17T02:58:56.285Z,97.15
2018-02-17T02:59:56.169Z,96.96
2018-02-17T03:00:56.066Z,97.15
2018-02-17T03:01:55.957Z,96.96
2018-02-17T03:02:55.858Z,97.15
2018-02-17T03:03:55.745Z,97.06
2018-02-17T03:04:55.634Z,96.68
2018-02-17T03:05:55.534Z,96.45
2018-02-17T03:06:55.423Z,96.92
2018-02-17T03:07:55.317Z,96.64
2018-02-17T03:08:55.214Z,96.35
2018-02-17T03:09:55.099Z,96.54
2018-02-17T03:10:54.994Z,96.73
2018-02-17T03:11:54.894Z,96.83
2018-02-17T03:12:54.784Z,96.35
2018-02-17T03:13:54.673Z,96.45
2018-02-17T03:14:54.569Z,96.16
2018-02-17T03:15:54.463Z,96.16
2018-02-17T03:16:54.363Z,95.78
2018-02-17T03:17:54.241Z,95.88
2018-02-17T03:18:54.141Z,95.69
2018-02-17T03:19:54.044Z,95.88
2018-02-17T03:20:53.924Z,95.88
2018-02-17T03:21:53.823Z,95.78
2018-02-17T03:22:53.718Z,95.59
2018-02-17T03:23:53.611Z,95.78
2018-02-17T03:24:53.498Z,95.69
2018-02-17T03:25:53.396Z,95.50
2018-02-17T03:26:53.288Z,95.69
2018-02-17T03:27:53.181Z,95.78
2018-02-17T03:28:53.072Z,95.03
2018-02-17T03:29:52.971Z,95.59
2018-02-17T03:30:52.879Z,95.50
2018-02-17T03:31:52.750Z,95.12
2018-02-17T03:32:52.649Z,94.84
2018-02-17T03:33:52.541Z,94.65
2018-02-17T03:34:52.438Z,94.65
2018-02-17T03:35:52.326Z,94.74
2018-02-17T03:36:52.222Z,94.84
2018-02-17T03:37:52.121Z,94.93
2018-02-17T03:38:52.014Z,95.50
2018-02-17T03:39:51.894Z,95.50
2018-02-17T03:40:51.800Z,95.31
2018-02-17T03:41:51.693Z,95.31
2018-02-17T03:42:51.839Z,95.21
2018-02-17T03:43:51.478Z,95.31
2018-02-17T03:44:51.366Z,95.12
2018-02-17T03:45:51.266Z,95.31
2018-02-17T03:46:51.165Z,95.50
2018-02-17T03:47:51.054Z,94.93
2018-02-17T03:48:50.942Z,94.74
2018-02-17T03:49:50.836Z,94.65
2018-02-17T03:50:50.737Z,95.21
2018-02-17T03:51:50.633Z,94.65
2018-02-17T03:52:50.514Z,94.46
2018-02-17T03:53:50.413Z,94.56
2018-02-17T03:54:50.312Z,94.56
2018-02-17T03:55:50.204Z,94.56
2018-02-17T03:56:50.102Z,94.37
2018-02-17T03:57:49.987Z,94.74
2018-02-17T03:58:49.882Z,94.08
2018-02-17T03:59:49.780Z,94.32
2018-02-17T04:00:49.675Z,93.85
2018-02-17T04:01:49.559Z,93.80
2018-02-17T04:02:49.452Z,93.42
2018-02-17T04:03:49.353Z,93.56
2018-02-17T04:04:49.247Z,93.18
2018-02-17T04:05:49.147Z,93.56
2018-02-17T04:06:49.030Z,93.80
2018-02-17T04:07:48.923Z,93.42
2018-02-17T04:08:48.818Z,93.56
2018-02-17T04:09:48.715Z,93.66
2018-02-17T04:10:48.611Z,93.32
2018-02-17T04:11:48.498Z,93.37
2018-02-17T04:12:48.393Z,93.37
2018-02-17T04:13:48.298Z,93.66
2018-02-17T04:14:48.191Z,93.47
2018-02-17T04:15:48.083Z,93.85
2018-02-17T04:16:47.973Z,93.75
2018-02-17T04:17:48.168Z,93.37
2018-02-17T04:18:47.761Z,93.37
2018-02-17T04:19:47.665Z,93.09
2018-02-17T04:20:47.544Z,93.85
2018-02-17T04:21:47.443Z,93.94
2018-02-17T04:22:47.335Z,93.47
2018-02-17T04:23:47.232Z,93.18
2018-02-17T04:24:47.138Z,92.99
2018-02-17T04:25:47.014Z,93.66
2018-02-17T04:26:46.910Z,93.47
2018-02-17T04:27:47.062Z,93.56
2018-02-17T04:28:46.698Z,93.09
2018-02-17T04:29:46.588Z,93.56
2018-02-17T04:30:46.490Z,93.28
2018-02-17T04:31:46.380Z,93.56
2018-02-17T04:32:46.277Z,93.56
2018-02-17T04:33:46.169Z,93.75
2018-02-17T04:34:46.054Z,93.47
2018-02-17T04:35:45.954Z,93.56
2018-02-17T04:36:45.852Z,93.37
2018-02-17T04:37:45.749Z,93.56
2018-02-17T04:38:45.647Z,93.56
2018-02-17T04:39:45.543Z,93.56
2018-02-17T04:40:45.427Z,93.47
2018-02-17T04:41:45.317Z,93.56
2018-02-17T04:42:45.216Z,93.56
2018-02-17T04:43:45.118Z,93.28
2018-02-17T04:44:44.996Z,93.56
2018-02-17T04:45:44.899Z,93.66
2018-02-17T04:46:44.794Z,93.66
2018-02-17T04:47:44.688Z,94.13
2018-02-17T04:48:44.577Z,93.85
2018-02-17T04:49:44.468Z,93.37
2018-02-17T04:50:44.364Z,93.56
2018-02-17T04:51:44.267Z,93.75
2018-02-17T04:52:44.170Z,93.66
2018-02-17T04:53:44.042Z,93.94
2018-02-17T04:54:43.944Z,93.94
2018-02-17T04:55:43.831Z,93.94
2018-02-17T04:56:43.739Z,93.66
2018-02-17T04:57:43.629Z,93.56
2018-02-17T04:58:43.520Z,93.37
2018-02-17T04:59:43.414Z,93.94
2018-02-17T05:00:43.301Z,93.94
2018-02-17T05:01:43.202Z,93.47
2018-02-17T05:02:43.100Z,93.56
2018-02-17T05:03:42.984Z,93.09
2018-02-17T05:04:42.885Z,93.28
2018-02-17T05:05:42.774Z,93.37
2018-02-17T05:06:42.673Z,93.37
2018-02-17T05:07:42.870Z,93.37
2018-02-17T05:08:42.451Z,93.28
2018-02-17T05:09:42.351Z,93.37
2018-02-17T05:10:42.247Z,93.56
2018-02-17T05:11:42.138Z,93.28
2018-02-17T05:12:42.041Z,93.47
2018-02-17T05:13:41.922Z,93.37
2018-02-17T05:14:41.820Z,93.47
2018-02-17T05:15:41.719Z,93.66
2018-02-17T05:16:41.611Z,93.56
2018-02-17T05:17:41.509Z,93.18
2018-02-17T05:18:41.395Z,92.99
2018-02-17T05:19:41.289Z,92.99
2018-02-17T05:20:41.188Z,93.56
2018-02-17T05:21:41.077Z,93.47
2018-02-17T05:22:40.975Z,92.99
2018-02-17T05:23:40.863Z,93.75
2018-02-17T05:24:40.758Z,93.56
2018-02-17T05:25:40.658Z,93.56
2018-02-17T05:26:40.554Z,93.09
2018-02-17T05:27:40.447Z,93.56
2018-02-17T05:28:40.349Z,93.56
2018-02-17T05:29:40.224Z,93.75
2018-02-17T05:30:40.125Z,93.09
2018-02-17T05:31:40.028Z,92.90
2018-02-17T05:32:39.915Z,92.99
2018-02-17T05:33:39.816Z,93.28
2018-02-17T05:34:39.700Z,93.09
2018-02-17T05:35:39.593Z,92.90
2018-02-17T05:36:39.496Z,92.90
2018-02-17T05:37:39.386Z,93.09
2018-02-17T05:38:39.283Z,93.09
2018-02-17T05:39:39.187Z,93.09
2018-02-17T05:40:39.066Z,92.61
2018-02-17T05:41:38.960Z,92.99
2018-02-17T05:42:38.864Z,93.09
2018-02-17T05:43:38.759Z,93.28
2018-02-17T05:44:38.653Z,93.37
2018-02-17T05:45:38.532Z,93.09
2018-02-17T05:46:38.432Z,92.80
2018-02-17T05:47:38.330Z,93.09
2018-02-17T05:48:38.220Z,93.09
2018-02-17T05:49:38.123Z,93.18
2018-02-17T05:50:38.028Z,93.28
2018-02-17T05:51:37.901Z,92.99
2018-02-17T05:52:37.799Z,93.09
2018-02-17T05:53:37.691Z,92.61
2018-02-17T05:54:37.593Z,92.99
2018-02-17T05:55:37.492Z,93.18
2018-02-17T05:56:37.383Z,93.09
2018-02-17T05:57:37.275Z,92.99
2018-02-17T05:58:37.168Z,92.90
2018-02-17T05:59:37.064Z,92.71
2018-02-17T06:00:36.959Z,92.99
2018-02-17T06:01:36.851Z,93.09
2018-02-17T06:02:36.991Z,93.56
2018-02-17T06:03:36.635Z,93.18
2018-02-17T06:04:36.530Z,93.18
2018-02-17T06:05:36.433Z,92.90
2018-02-17T06:06:36.329Z,93.09
2018-02-17T06:07:36.222Z,92.99
2018-02-17T06:08:36.124Z,93.18
2018-02-17T06:09:36.003Z,93.28
2018-02-17T06:10:35.896Z,93.09
2018-02-17T06:11:35.797Z,92.90
2018-02-17T06:12:35.692Z,92.90
2018-02-17T06:13:35.587Z,92.90
2018-02-17T06:14:35.485Z,92.90
2018-02-17T06:15:35.380Z,92.90
2018-02-17T06:16:35.268Z,93.56
2018-02-17T06:17:35.158Z,93.66
2018-02-17T06:18:35.055Z,92.99
2018-02-17T06:19:34.960Z,92.90
2018-02-17T06:20:34.853Z,93.66
2018-02-17T06:21:34.754Z,93.18
2018-02-17T06:22:34.882Z,92.99
2018-02-17T06:23:34.524Z,92.80
2018-02-17T06:24:34.430Z,93.09
2018-02-17T06:25:34.320Z,92.90
2018-02-17T06:26:34.219Z,92.90
2018-02-17T06:27:34.118Z,92.90
2018-02-17T06:28:33.998Z,93.09
2018-02-17T06:29:33.899Z,92.80
2018-02-17T06:30:33.796Z,92.80
2018-02-17T06:31:33.686Z,93.28
2018-02-17T06:32:33.584Z,93.37
2018-02-17T06:33:33.476Z,92.80
2018-02-17T06:34:33.379Z,93.28
2018-02-17T06:35:33.263Z,93.28
2018-02-17T06:36:33.158Z,92.99
2018-02-17T06:37:33.058Z,92.90
2018-02-17T06:38:32.956Z,93.18
2018-02-17T06:39:32.851Z,92.43
2018-02-17T06:40:32.747Z,92.52
2018-02-17T06:41:32.628Z,92.52
2018-02-17T06:42:32.773Z,92.24
2018-02-17T06:43:32.426Z,92.52
2018-02-17T06:44:32.318Z,92.14
2018-02-17T06:45:32.216Z,92.33
2018-02-17T06:46:32.112Z,92.33
2018-02-17T06:47:32.011Z,92.05
2018-02-17T06:48:31.895Z,92.43
2018-02-17T06:49:31.796Z,92.43
2018-02-17T06:50:31.684Z,92.24
2018-02-17T06:51:31.586Z,92.33
2018-02-17T06:52:31.480Z,92.52
2018-02-17T06:53:31.376Z,92.33
2018-02-17T06:54:31.260Z,92.05
2018-02-17T06:55:31.157Z,92.61
2018-02-17T06:56:31.067Z,92.24
2018-02-17T06:57:30.945Z,92.52
2018-02-17T06:58:30.842Z,92.24
2018-02-17T06:59:30.742Z,92.80
2018-02-17T07:00:30.641Z,92.43
2018-02-17T07:01:30.527Z,92.80
2018-02-17T07:02:30.422Z,92.33
2018-02-17T07:03:30.314Z,92.33
2018-02-17T07:04:30.217Z,92.52
2018-02-17T07:05:30.107Z,92.52
2018-02-17T07:06:30.006Z,92.14
2018-02-17T07:07:29.891Z,91.86
2018-02-17T07:08:29.786Z,91.86
2018-02-17T07:09:29.687Z,91.72
2018-02-17T07:10:29.583Z,91.91
2018-02-17T07:11:29.475Z,91.72
2018-02-17T07:12:29.374Z,91.72
2018-02-17T07:13:29.312Z,91.53
2018-02-17T07:14:29.152Z,91.62
2018-02-17T07:15:29.051Z,91.72
2018-02-17T07:16:28.951Z,91.53
2018-02-17T07:17:28.848Z,91.15
2018-02-17T07:18:28.747Z,90.96
2018-02-17T07:19:28.638Z,90.77
2018-02-17T07:20:28.539Z,90.16
2018-02-17T07:21:28.416Z,90.20
2018-02-17T07:22:28.314Z,90.96
2018-02-17T07:23:28.212Z,90.86
2018-02-17T07:24:28.106Z,91.15
2018-02-17T07:25:28.007Z,90.77
2018-02-17T07:26:27.904Z,91.15
2018-02-17T07:27:27.798Z,90.77
2018-02-17T07:28:27.690Z,90.30
2018-02-17T07:29:27.579Z,90.48
2018-02-17T07:30:27.479Z,90.58
2018-02-17T07:31:27.376Z,90.58
2018-02-17T07:32:27.265Z,90.30
2018-02-17T07:33:27.173Z,90.20
2018-02-17T07:34:27.063Z,90.20
2018-02-17T07:35:26.956Z,90.48
2018-02-17T07:36:26.847Z,89.73
2018-02-17T07:37:26.738Z,89.92
2018-02-17T07:38:26.637Z,89.73
2018-02-17T07:39:26.536Z,89.35
2018-02-17T07:40:26.430Z,89.25
2018-02-17T07:41:26.336Z,89.73
2018-02-17T07:42:26.224Z,89.25
2018-02-17T07:43:26.122Z,89.35
2018-02-17T07:44:26.022Z,89.54
2018-02-17T07:45:25.898Z,88.97
2018-02-17T07:46:25.794Z,88.31
2018-02-17T07:47:25.699Z,88.87
2018-02-17T07:48:25.591Z,88.68
2018-02-17T07:49:25.491Z,88.40
2018-02-17T07:50:25.386Z,88.59
2018-02-17T07:51:25.280Z,88.78
2018-02-17T07:52:25.178Z,88.68
2018-02-17T07:53:25.071Z,88.49
2018-02-17T07:54:24.957Z,88.68
2018-02-17T07:55:24.860Z,88.68
2018-02-17T07:56:24.768Z,88.12
2018-02-17T07:57:24.650Z,88.26
2018-02-17T07:58:24.548Z,88.02
2018-02-17T07:59:24.444Z,87.93
2018-02-17T08:00:24.341Z,87.65
2018-02-17T08:01:24.233Z,87.65
2018-02-17T08:02:24.129Z,87.74
2018-02-17T08:03:24.034Z,87.84
2018-02-17T08:04:23.924Z,87.93
2018-02-17T08:05:23.826Z,87.93
2018-02-17T08:06:23.708Z,88.64
2018-02-17T08:07:23.853Z,88.54
2018-02-17T08:08:23.503Z,88.07
2018-02-17T08:09:23.395Z,87.84
2018-02-17T08:10:23.294Z,87.50
2018-02-17T08:11:23.192Z,87.84
2018-02-17T08:12:23.089Z,87.78
2018-02-17T08:13:22.983Z,87.65
2018-02-17T08:14:22.883Z,87.36
2018-02-17T08:15:22.780Z,87.40
2018-02-17T08:16:22.669Z,87.50
2018-02-17T08:17:22.821Z,87.31
2018-02-17T08:18:22.474Z,87.69
2018-02-17T08:19:22.359Z,87.50
2018-02-17T08:20:22.263Z,87.21
2018-02-17T08:21:22.144Z,86.93
2018-02-17T08:22:22.042Z,87.12
2018-02-17T08:23:21.951Z,87.21
2018-02-17T08:24:21.836Z,87.21
2018-02-17T08:25:21.731Z,86.65
2018-02-17T08:26:21.634Z,86.65
2018-02-17T08:27:21.521Z,86.46
2018-02-17T08:28:21.426Z,86.46
2018-02-17T08:29:21.316Z,86.65
2018-02-17T08:30:21.217Z,87.12
2018-02-17T08:31:21.115Z,86.93
2018-02-17T08:32:21.006Z,86.65
2018-02-17T08:33:20.908Z,86.46
2018-02-17T08:34:20.805Z,86.55
2018-02-17T08:35:20.699Z,86.93
2018-02-17T08:36:20.596Z,86.83
2018-02-17T08:37:20.489Z,86.93
2018-02-17T08:38:20.385Z,86.36
2018-02-17T08:39:20.290Z,85.80
2018-02-17T08:40:20.180Z,85.89
2018-02-17T08:41:20.082Z,86.27
2018-02-17T08:42:19.968Z,85.89
2018-02-17T08:43:19.863Z,85.99
2018-02-17T08:44:19.762Z,86.18
2018-02-17T08:45:19.649Z,85.51
2018-02-17T08:46:19.553Z,84.66
2018-02-17T08:47:19.447Z,84.85
2018-02-17T08:48:19.343Z,85.08
2018-02-17T08:49:19.242Z,84.99
2018-02-17T08:50:19.141Z,84.23
2018-02-17T08:51:19.029Z,84.42
2018-02-17T08:52:18.939Z,83.85
2018-02-17T08:53:18.828Z,83.56
2018-02-17T08:54:18.723Z,83.85
2018-02-17T08:55:18.624Z,83.75
2018-02-17T08:56:18.515Z,83.85
2018-02-17T08:57:18.421Z,83.28
2018-02-17T08:58:18.310Z,83.56
2018-02-17T08:59:18.210Z,84.04
2018-02-17T09:00:18.107Z,84.13
2018-02-17T09:01:18.005Z,84.32
2018-02-17T09:02:18.152Z,84.23
2018-02-17T09:03:17.799Z,84.23
2018-02-17T09:04:17.693Z,83.47
2018-02-17T09:05:17.590Z,83.37
2018-02-17T09:06:17.487Z,83.00
2018-02-17T09:07:17.382Z,83.28
2018-02-17T09:08:17.278Z,83.47
2018-02-17T09:09:17.171Z,83.47
2018-02-17T09:10:17.071Z,83.09
2018-02-17T09:11:16.998Z,82.90
2018-02-17T09:12:16.863Z,83.00
2018-02-17T09:13:16.768Z,82.62
2018-02-17T09:14:16.667Z,82.52
2018-02-17T09:15:16.557Z,82.66
2018-02-17T09:16:16.457Z,82.28
2018-02-17T09:17:16.343Z,81.62
2018-02-17T09:18:16.241Z,81.05
2018-02-17T09:19:16.144Z,81.52
2018-02-17T09:20:16.041Z,81.43
2018-02-17T09:21:15.938Z,81.05
2018-02-17T09:22:16.084Z,81.24
2018-02-17T09:23:15.727Z,81.05
2018-02-17T09:24:15.639Z,80.76
2018-02-17T09:25:15.524Z,80.67
2018-02-17T09:26:15.418Z,80.29
2018-02-17T09:27:15.317Z,80.29
2018-02-17T09:28:15.234Z,79.82
2018-02-17T09:29:15.125Z,79.34
2018-02-17T09:30:15.021Z,80.57
2018-02-17T09:31:14.924Z,79.53
2018-02-17T09:32:14.811Z,79.44
2018-02-17T09:33:14.704Z,79.34
2018-02-17T09:34:14.600Z,79.15
2018-02-17T09:35:14.501Z,78.43
2018-02-17T09:36:14.394Z,78.81
2018-02-17T09:37:14.300Z,78.05
2018-02-17T09:38:14.195Z,78.11
2018-02-17T09:39:14.084Z,78.15
2018-02-17T09:40:13.988Z,77.73
2018-02-17T09:41:13.882Z,78.02
2018-02-17T09:42:13.793Z,78.02
2018-02-17T09:43:13.691Z,78.11
2018-02-17T09:44:13.585Z,78.11
2018-02-17T09:45:13.481Z,78.58
2018-02-17T09:46:13.377Z,78.11
2018-02-17T09:47:13.278Z,78.11
2018-02-17T09:48:13.177Z,78.11
2018-02-17T09:49:13.067Z,77.92
2018-02-17T09:50:12.961Z,77.92
2018-02-17T09:51:12.865Z,77.92
2018-02-17T09:52:12.769Z,78.87
2018-02-17T09:53:12.711Z,78.77
2018-02-17T09:54:12.567Z,78.58
2018-02-17T09:55:12.457Z,78.96
2018-02-17T09:56:12.357Z,78.77
2018-02-17T09:57:12.253Z,78.58
2018-02-17T09:58:12.145Z,78.87
2018-02-17T09:59:12.049Z,79.34
2018-02-17T10:00:11.954Z,79.53
2018-02-17T10:01:11.856Z,79.25
2018-02-17T10:02:12.003Z,78.77
2018-02-17T10:03:11.644Z,78.34
2018-02-17T10:04:11.543Z,78.58
2018-02-17T10:05:11.440Z,77.96
2018-02-17T10:06:11.339Z,77.67
2018-02-17T10:07:11.245Z,77.58
2018-02-17T10:08:11.144Z,77.39
2018-02-17T10:09:11.041Z,77.77
2018-02-17T10:10:10.936Z,77.92
2018-02-17T10:11:10.832Z,77.73
2018-02-17T10:12:10.733Z,77.73
2018-02-17T10:13:10.627Z,78.11
2018-02-17T10:14:10.523Z,78.49
2018-02-17T10:15:10.434Z,78.11
2018-02-17T10:16:10.330Z,78.15
2018-02-17T10:17:10.225Z,78.39
2018-02-17T10:18:10.128Z,77.96
2018-02-17T10:19:10.015Z,77.92
2018-02-17T10:20:09.916Z,77.92
2018-02-17T10:21:09.810Z,78.49
2018-02-17T10:22:09.718Z,78.39
2018-02-17T10:23:09.662Z,77.92
2018-02-17T10:24:09.516Z,78.11
2018-02-17T10:25:09.409Z,77.92
2018-02-17T10:26:09.310Z,77.92
2018-02-17T10:27:09.207Z,78.39
2018-02-17T10:28:09.110Z,78.02
2018-02-17T10:29:09.017Z,78.39
2018-02-17T10:30:08.907Z,78.67
2018-02-17T10:31:08.800Z,78.77
2018-02-17T10:32:08.708Z,78.96
2018-02-17T10:33:08.595Z,78.39
2018-02-17T10:34:08.494Z,77.96
2018-02-17T10:35:08.406Z,78.62
2018-02-17T10:36:08.300Z,78.15
2018-02-17T10:37:08.203Z,77.96
2018-02-17T10:38:08.097Z,77.48
2018-02-17T10:39:07.987Z,77.11
2018-02-17T10:40:07.891Z,77.11
2018-02-17T10:41:07.780Z,77.29
2018-02-17T10:42:07.692Z,77.29
2018-02-17T10:43:07.584Z,77.29
2018-02-17T10:44:07.488Z,76.92
2018-02-17T10:45:07.387Z,76.82
2018-02-17T10:46:07.282Z,76.82
2018-02-17T10:47:07.188Z,76.34
2018-02-17T10:48:07.089Z,75.96
2018-02-17T10:49:06.979Z,76.06
2018-02-17T10:50:06.875Z,75.11
2018-02-17T10:51:06.777Z,75.02
2018-02-17T10:52:06.674Z,74.83
2018-02-17T10:53:06.579Z,74.77
2018-02-17T10:54:06.483Z,74.01
2018-02-17T10:55:06.374Z,73.82
2018-02-17T10:56:06.274Z,73.82
2018-02-17T10:57:06.166Z,73.63
2018-02-17T10:58:06.065Z,73.35
2018-02-17T10:59:05.975Z,74.01
2018-02-17T11:00:05.865Z,73.54
2018-02-17T11:01:05.783Z,73.07
2018-02-17T11:02:05.664Z,72.88
2018-02-17T11:03:05.557Z,72.15
2018-02-17T11:04:05.477Z,72.15
2018-02-17T11:05:05.364Z,71.86
2018-02-17T11:06:05.263Z,71.48
2018-02-17T11:07:05.165Z,71.39
2018-02-17T11:08:05.080Z,71.39
2018-02-17T11:09:04.965Z,71.20
2018-02-17T11:10:04.868Z,71.48
2018-02-17T11:11:04.755Z,71.11
2018-02-17T11:12:04.657Z,70.25
2018-02-17T11:13:04.562Z,70.44
2018-02-17T11:14:04.457Z,70.25
2018-02-17T11:15:04.361Z,70.44
2018-02-17T11:16:04.254Z,69.87
2018-02-17T11:17:04.166Z,70.54
2018-02-17T11:18:04.063Z,70.73
2018-02-17T11:19:03.959Z,70.44
2018-02-17T11:20:03.856Z,70.15
2018-02-17T11:21:03.759Z,70.44
2018-02-17T11:22:03.906Z,70.44
2018-02-17T11:23:03.557Z,70.73
2018-02-17T11:24:03.464Z,70.25
2018-02-17T11:25:03.364Z,70.63
2018-02-17T11:26:03.263Z,70.06
2018-02-17T11:27:03.157Z,70.44
2018-02-17T11:28:03.071Z,69.96
2018-02-17T11:29:02.960Z,71.11
2018-02-17T11:30:02.854Z,70.35
2018-02-17T11:31:02.756Z,69.96
2018-02-17T11:32:02.664Z,69.78
2018-02-17T11:33:02.562Z,69.96
2018-02-17T11:34:02.462Z,70.25
2018-02-17T11:35:02.407Z,69.59
2018-02-17T11:36:02.264Z,69.96
2018-02-17T11:37:02.161Z,69.24
2018-02-17T11:38:02.058Z,69.91
2018-02-17T11:39:01.969Z,69.34
2018-02-17T11:40:01.861Z,69.24
2018-02-17T11:41:01.761Z,69.24
2018-02-17T11:42:01.671Z,68.19
2018-02-17T11:43:01.617Z,68.39
2018-02-17T11:44:01.464Z,68.39
2018-02-17T11:45:01.368Z,67.72
2018-02-17T11:46:01.265Z,68.10
2018-02-17T11:47:01.169Z,67.72
2018-02-17T11:48:01.059Z,67.63
2018-02-17T11:49:00.974Z,67.53
2018-02-17T11:50:00.873Z,67.72
2018-02-17T11:51:00.762Z,67.63
2018-02-17T11:52:00.676Z,68.44
2018-02-17T11:53:00.570Z,68.86
2018-02-17T11:54:00.464Z,69.53
2018-02-17T11:55:00.377Z,68.77
2018-02-17T11:56:00.268Z,68.39
2018-02-17T11:57:00.172Z,68.54
2018-02-17T11:58:00.117Z,68.92
2018-02-17T11:58:59.974Z,68.64
2018-02-17T11:59:59.872Z,69.30
2018-02-17T12:00:59.780Z,69.78
2018-02-17T12:01:59.923Z,69.30
2018-02-17T12:02:59.581Z,70.06
2018-02-17T12:03:59.483Z,70.15
2018-02-17T12:04:59.382Z,70.44
2018-02-17T12:05:59.278Z,70.44
2018-02-17T12:06:59.185Z,70.15
2018-02-17T12:07:59.083Z,70.44
2018-02-17T12:08:58.981Z,70.35
2018-02-17T12:09:58.886Z,70.06
2018-02-17T12:10:58.785Z,70.35
2018-02-17T12:11:58.690Z,69.87
2018-02-17T12:12:58.593Z,69.96
2018-02-17T12:13:58.497Z,69.81
2018-02-17T12:14:58.381Z,69.43
2018-02-17T12:15:58.295Z,69.43
2018-02-17T12:16:58.193Z,68.58
2018-02-17T12:17:58.088Z,68.67
2018-02-17T12:18:57.998Z,68.39
2018-02-17T12:19:57.894Z,68.01
2018-02-17T12:20:57.790Z,67.72
2018-02-17T12:21:57.949Z,67.63
2018-02-17T12:22:57.592Z,66.87
2018-02-17T12:23:57.495Z,67.15
2018-02-17T12:24:57.389Z,66.67
2018-02-17T12:25:57.300Z,67.15
2018-02-17T12:26:57.198Z,67.34
2018-02-17T12:27:57.107Z,67.34
2018-02-17T12:28:57.002Z,67.06
2018-02-17T12:29:56.898Z,67.15
2018-02-17T12:30:56.810Z,67.15
2018-02-17T12:31:56.699Z,67.06
2018-02-17T12:32:56.599Z,66.83
2018-02-17T12:33:56.508Z,66.93
2018-02-17T12:34:56.405Z,67.34
2018-02-17T12:35:56.304Z,67.79
2018-02-17T12:36:56.212Z,67.59
2018-02-17T12:37:56.106Z,68.35
2018-02-17T12:38:56.008Z,68.54
2018-02-17T12:39:55.912Z,69.30
2018-02-17T12:40:55.811Z,68.35
2018-02-17T12:41:55.961Z,68.07
2018-02-17T12:42:55.612Z,68.73
2018-02-17T12:43:55.515Z,68.54
2018-02-17T12:44:55.408Z,68.73
2018-02-17T12:45:55.317Z,68.26
2018-02-17T12:46:55.219Z,69.30
2018-02-17T12:47:55.113Z,68.54
2018-02-17T12:48:55.024Z,69.30
2018-02-17T12:49:54.952Z,67.02
2018-02-17T12:50:54.855Z,66.58